Time;durP1;ratioP1;P1;durP2;ratioP2;P2;SDS_P1;SDS_P2;PMS_P1;PMS_P2;Temp;Humidity;BMP_temperature;BMP_pressure;BME280_temperature;BME280_humidity;BME280_pressure;Samples;Min_cycle;Max_cycle;Signal;HPM_P1;HPM_P2
2021/05/27 00:02:02;;;;;;;15.97;7.43;;;13.90;99.90;;;;;;5092500;28;20702;-73
2021/05/27 00:04:27;;;;;;;20.67;7.77;;;14.00;99.90;;;;;;5076422;28;20175;-73
2021/05/27 00:06:53;;;;;;;20.70;8.17;;;14.00;99.90;;;;;;5093292;28;20193;-73
2021/05/27 00:09:19;;;;;;;18.33;7.47;;;14.10;99.90;;;;;;5071025;28;20195;-73
2021/05/27 00:11:44;;;;;;;20.40;8.33;;;14.10;99.90;;;;;;5086107;28;20236;-73
2021/05/27 00:14:10;;;;;;;23.17;9.17;;;14.10;99.90;;;;;;5070807;28;20194;-73
2021/05/27 00:16:36;;;;;;;18.27;8.57;;;14.10;99.90;;;;;;5088626;28;20170;-73
2021/05/27 00:19:02;;;;;;;21.10;9.13;;;14.10;99.90;;;;;;5088338;28;20695;-73
2021/05/27 00:21:28;;;;;;;19.30;9.17;;;14.00;99.90;;;;;;5091202;28;20709;-72
2021/05/27 00:23:53;;;;;;;19.77;9.17;;;14.00;99.90;;;;;;5087871;28;20262;-73
2021/05/27 00:26:19;;;;;;;22.17;9.63;;;14.10;99.90;;;;;;5089585;28;20542;-72
2021/05/27 00:28:48;;;;;;;20.70;9.00;;;14.00;99.90;;;;;;5091595;28;20233;-72
2021/05/27 00:31:14;;;;;;;20.27;9.97;;;13.80;99.90;;;;;;5070718;28;20206;-72
2021/05/27 00:33:40;;;;;;;22.27;9.70;;;13.80;99.90;;;;;;5092418;28;20178;-72
2021/05/27 00:36:06;;;;;;;19.93;10.30;;;13.90;99.90;;;;;;5085186;28;20632;-72
2021/05/27 00:38:31;;;;;;;20.93;10.17;;;13.90;99.90;;;;;;5072075;28;20220;-72
2021/05/27 00:40:57;;;;;;;19.83;10.37;;;13.90;99.90;;;;;;5087053;28;20230;-72
2021/05/27 00:43:23;;;;;;;26.50;10.63;;;13.90;99.90;;;;;;5089550;28;20268;-72
2021/05/27 00:45:49;;;;;;;20.50;10.37;;;13.90;99.90;;;;;;5089716;28;20174;-72
2021/05/27 00:50:59;;;;;;;23.37;9.57;;;13.90;99.90;;;;;;5090081;28;20186;-72
2021/05/27 00:53:27;;;;;;;21.87;10.83;;;13.90;99.90;;;;;;5083171;28;20538;-72
2021/05/27 00:55:53;;;;;;;20.47;10.50;;;13.90;99.90;;;;;;5089648;28;20198;-72
2021/05/27 00:58:21;;;;;;;20.77;10.20;;;13.90;99.90;;;;;;5070139;28;20244;-72
2021/05/27 01:00:47;;;;;;;22.43;10.43;;;13.90;99.90;;;;;;5086351;28;20217;-72
2021/05/27 01:03:13;;;;;;;20.63;9.63;;;13.80;99.90;;;;;;5072206;28;20221;-73
2021/05/27 01:05:39;;;;;;;27.53;10.93;;;13.80;99.90;;;;;;5087077;28;20189;-72
2021/05/27 01:08:06;;;;;;;22.23;10.50;;;13.80;99.90;;;;;;5071901;28;20603;-72
2021/05/27 01:10:33;;;;;;;24.77;10.67;;;13.70;99.90;;;;;;5069150;28;20189;-72
2021/05/27 01:13:00;;;;;;;21.57;11.13;;;13.70;99.90;;;;;;5072106;28;20194;-72
2021/05/27 01:15:35;;;;;;;24.67;11.20;;;13.60;99.90;;;;;;5084317;28;20249;-72
2021/05/27 01:18:14;;;;;;;27.40;11.57;;;13.40;99.90;;;;;;5086254;28;20196;-72
2021/05/27 01:20:42;;;;;;;23.30;11.33;;;13.50;99.90;;;;;;5090523;28;20200;-72
2021/05/27 01:23:09;;;;;;;22.57;10.63;;;13.50;99.90;;;;;;5071503;28;20184;-72
2021/05/27 01:25:39;;;;;;;21.23;11.10;;;13.60;99.90;;;;;;5073089;28;20196;-72
2021/05/27 01:28:06;;;;;;;24.63;11.70;;;13.50;99.90;;;;;;5088062;28;20172;-72
2021/05/27 01:30:32;;;;;;;24.37;11.23;;;13.50;99.90;;;;;;5088798;28;20607;-72
2021/05/27 01:32:58;;;;;;;21.17;11.57;;;13.50;99.90;;;;;;5072525;28;20193;-72
2021/05/27 01:35:25;;;;;;;23.97;11.53;;;13.40;99.90;;;;;;5069573;28;20201;-71
2021/05/27 01:37:53;;;;;;;24.83;12.13;;;13.30;99.90;;;;;;5051879;28;20235;-72
2021/05/27 01:40:21;;;;;;;27.00;12.60;;;13.30;99.90;;;;;;5086248;28;20216;-72
2021/05/27 01:42:47;;;;;;;23.03;12.37;;;13.30;99.90;;;;;;5084673;28;20179;-71
2021/05/27 01:45:14;;;;;;;23.37;12.37;;;13.20;99.90;;;;;;5086655;28;20184;-71
2021/05/27 01:47:41;;;;;;;26.10;13.03;;;13.20;99.90;;;;;;5070625;28;20177;-72
2021/05/27 01:50:10;;;;;;;26.77;13.13;;;13.20;99.90;;;;;;5064259;28;20193;-72
2021/05/27 01:52:37;;;;;;;27.57;13.43;;;13.10;99.90;;;;;;5087672;28;20185;-72
2021/05/27 01:55:04;;;;;;;24.37;13.10;;;13.00;99.90;;;;;;5071922;28;20188;-72
2021/05/27 01:57:32;;;;;;;28.20;13.03;;;13.00;99.90;;;;;;5089760;28;20181;-72
2021/05/27 01:59:58;;;;;;;29.27;14.03;;;13.00;99.90;;;;;;5084978;28;20296;-72
2021/05/27 02:02:24;;;;;;;25.33;13.73;;;13.10;99.90;;;;;;5073884;28;20256;-72
2021/05/27 02:04:50;;;;;;;30.77;14.23;;;13.10;99.90;;;;;;5063620;28;20193;-72
2021/05/27 02:07:16;;;;;;;26.93;14.77;;;13.20;99.90;;;;;;5089923;28;20173;-73
2021/05/27 02:09:45;;;;;;;28.87;14.83;;;13.20;99.90;;;;;;5065567;28;20184;-72
2021/05/27 02:12:14;;;;;;;28.10;15.10;;;13.20;99.90;;;;;;5070084;28;20182;-73
2021/05/27 02:14:40;;;;;;;28.17;14.43;;;13.10;99.90;;;;;;5088811;28;20655;-72
2021/05/27 02:17:06;;;;;;;28.80;16.07;;;13.10;99.90;;;;;;5088682;28;20271;-72
2021/05/27 02:19:32;;;;;;;29.93;15.43;;;13.20;99.90;;;;;;5066014;28;20304;-72
2021/05/27 02:21:58;;;;;;;27.27;15.43;;;13.30;99.90;;;;;;5070429;28;20694;-72
2021/05/27 02:24:40;;;;;;;27.47;15.00;;;13.40;99.90;;;;;;5071167;28;20180;-72
2021/05/27 02:27:08;;;;;;;30.80;16.03;;;13.40;99.90;;;;;;5067211;28;20192;-72
2021/05/27 02:29:34;;;;;;;31.40;15.60;;;13.40;99.90;;;;;;5088057;28;20189;-71
2021/05/27 02:32:04;;;;;;;31.00;14.50;;;13.40;99.90;;;;;;5068620;28;20197;-72
2021/05/27 02:34:32;;;;;;;28.90;14.70;;;13.40;99.90;;;;;;5052620;28;20208;-71
2021/05/27 02:36:57;;;;;;;29.17;13.87;;;13.30;99.90;;;;;;5086238;28;20232;-72
2021/05/27 02:39:23;;;;;;;28.63;13.13;;;13.30;99.90;;;;;;5086023;28;20701;-72
2021/05/27 02:41:52;;;;;;;26.10;13.10;;;13.30;99.90;;;;;;5084522;28;20563;-73
2021/05/27 02:44:24;;;;;;;25.47;12.17;;;13.30;99.90;;;;;;5065456;28;20194;-73
2021/05/27 02:46:52;;;;;;;23.10;12.07;;;13.30;99.90;;;;;;5087064;28;20259;-72
2021/05/27 02:49:18;;;;;;;26.77;12.50;;;13.20;99.90;;;;;;5067933;28;20328;-72
2021/05/27 02:51:44;;;;;;;27.80;12.93;;;13.20;99.90;;;;;;5085549;28;20185;-72
2021/05/27 02:54:11;;;;;;;25.53;12.93;;;13.10;99.90;;;;;;5071677;28;20181;-72
2021/05/27 02:56:39;;;;;;;26.43;12.13;;;13.20;99.90;;;;;;5066269;28;20197;-72
2021/05/27 02:59:06;;;;;;;25.57;12.60;;;13.20;99.90;;;;;;5069178;28;20224;-72
2021/05/27 03:01:32;;;;;;;27.87;12.93;;;13.20;99.90;;;;;;5053500;28;20256;-72
2021/05/27 03:03:59;;;;;;;27.70;12.43;;;13.20;99.90;;;;;;5068623;28;20182;-72
2021/05/27 03:06:26;;;;;;;25.87;13.07;;;13.20;99.90;;;;;;5070011;28;20638;-72
2021/05/27 03:08:53;;;;;;;25.07;12.37;;;13.20;99.90;;;;;;5066735;28;20195;-72
2021/05/27 03:11:21;;;;;;;24.43;12.97;;;13.30;99.90;;;;;;5089197;28;20185;-72
2021/05/27 03:13:49;;;;;;;25.43;12.53;;;13.30;99.90;;;;;;5086819;28;20614;-72
2021/05/27 03:16:17;;;;;;;25.90;13.03;;;13.30;99.90;;;;;;5085200;28;20192;-73
2021/05/27 03:18:44;;;;;;;25.37;12.67;;;13.30;99.90;;;;;;5064441;28;20606;-72
2021/05/27 03:21:09;;;;;;;27.13;12.70;;;13.40;99.90;;;;;;5086252;28;20222;-72
2021/05/27 03:23:37;;;;;;;24.87;13.13;;;13.30;99.90;;;;;;5092815;28;20653;-72
2021/05/27 03:26:03;;;;;;;30.33;13.67;;;13.20;99.90;;;;;;5067195;28;20181;-72
2021/05/27 03:28:30;;;;;;;30.17;13.93;;;13.10;99.90;;;;;;5073188;28;20279;-72
2021/05/27 03:31:02;;;;;;;25.23;13.47;;;13.10;99.90;;;;;;5071004;28;20192;-72
2021/05/27 03:33:32;;;;;;;29.20;14.73;;;13.10;99.90;;;;;;5074070;28;20662;-72
2021/05/27 03:35:59;;;;;;;26.37;13.17;;;13.10;99.90;;;;;;5071719;28;20224;-72
2021/05/27 03:38:26;;;;;;;29.93;14.37;;;13.20;99.90;;;;;;5070818;28;20211;-72
2021/05/27 03:40:52;;;;;;;27.40;14.23;;;13.20;99.90;;;;;;5089552;28;20193;-72
2021/05/27 03:43:18;;;;;;;32.60;14.47;;;13.30;99.90;;;;;;5072117;28;20209;-72
2021/05/27 03:45:44;;;;;;;30.97;14.37;;;13.20;99.90;;;;;;5071783;28;20191;-72
2021/05/27 03:48:13;;;;;;;31.30;14.47;;;13.20;99.90;;;;;;5090740;28;20171;-72
2021/05/27 03:50:40;;;;;;;30.63;15.07;;;13.20;99.90;;;;;;5071558;28;20702;-72
2021/05/27 03:53:10;;;;;;;31.40;14.83;;;13.30;99.90;;;;;;5069540;28;20175;-72
2021/05/27 03:55:36;;;;;;;33.43;15.40;;;13.30;99.90;;;;;;5070428;28;20328;-72
2021/05/27 04:00:41;;;;;;;30.27;15.17;;;13.30;99.90;;;;;;5069320;28;20549;-72
2021/05/27 04:00:54;;;;;;;32.17;16.07;;;13.20;99.90;;;;;;5081659;28;20220;-72
2021/05/27 04:09:14;;;;;;;30.97;17.03;;;13.20;99.90;;;;;;5091253;28;20191;-72
2021/05/27 04:11:40;;;;;;;32.77;17.00;;;13.20;99.90;;;;;;5091021;28;20200;-71
2021/05/27 04:14:05;;;;;;;33.27;15.73;;;13.10;99.90;;;;;;5091682;28;20581;-71
2021/05/27 04:16:31;;;;;;;29.50;15.10;;;12.90;99.90;;;;;;5092621;28;20259;-72
2021/05/27 04:18:57;;;;;;;34.50;16.43;;;12.70;99.90;;;;;;5088133;28;20895;-72
2021/05/27 04:21:22;;;;;;;35.37;16.93;;;12.70;99.90;;;;;;5090703;28;20181;-72
2021/05/27 04:23:48;;;;;;;30.07;16.77;;;12.70;99.90;;;;;;5067144;28;20186;-72
2021/05/27 04:26:15;;;;;;;36.37;16.43;;;12.60;99.90;;;;;;5090060;28;20192;-72
2021/05/27 04:28:43;;;;;;;31.27;16.47;;;12.70;99.90;;;;;;5088362;28;20669;-72
2021/05/27 04:31:11;;;;;;;35.97;16.70;;;12.80;99.90;;;;;;5087669;28;20711;-72
2021/05/27 04:33:53;;;;;;;36.17;17.27;;;12.80;99.90;;;;;;5073385;28;20192;-72
2021/05/27 04:36:20;;;;;;;36.03;17.33;;;12.80;99.90;;;;;;5083945;28;20245;-72
2021/05/27 04:38:47;;;;;;;36.77;17.43;;;12.90;99.90;;;;;;5089462;28;20531;-72
2021/05/27 04:41:13;;;;;;;36.50;17.27;;;13.00;99.90;;;;;;5069103;28;20204;-72
2021/05/27 04:43:40;;;;;;;34.47;17.37;;;13.00;99.90;;;;;;5071341;28;20286;-72
2021/05/27 04:46:10;;;;;;;32.50;17.50;;;12.90;99.90;;;;;;5086660;28;20263;-72
2021/05/27 04:48:36;;;;;;;32.03;16.23;;;13.00;99.90;;;;;;5089170;28;20185;-72
2021/05/27 04:51:02;;;;;;;35.47;17.70;;;13.00;99.90;;;;;;5090316;28;20191;-73
2021/05/27 04:53:29;;;;;;;38.87;18.43;;;13.00;99.90;;;;;;5068582;28;20274;-72
2021/05/27 04:55:56;;;;;;;35.87;17.70;;;13.10;99.90;;;;;;5089334;28;20257;-72
2021/05/27 04:58:22;;;;;;;36.50;18.00;;;13.20;99.90;;;;;;5068192;28;20189;-72
2021/05/27 05:00:49;;;;;;;36.17;17.87;;;13.10;99.90;;;;;;5089197;28;20216;-72
2021/05/27 05:03:15;;;;;;;35.23;17.73;;;13.10;99.90;;;;;;5090027;28;20175;-73
2021/05/27 05:05:40;;;;;;;36.17;18.60;;;13.10;99.90;;;;;;5089652;28;20226;-73
2021/05/27 05:08:06;;;;;;;32.50;17.07;;;13.20;99.90;;;;;;5088064;28;20177;-72
2021/05/27 05:10:33;;;;;;;35.83;18.57;;;13.30;99.90;;;;;;5086058;28;20192;-72
2021/05/27 05:12:59;;;;;;;38.20;18.80;;;13.40;99.90;;;;;;5088189;28;20271;-73
2021/05/27 05:15:31;;;;;;;35.07;17.40;;;13.50;99.90;;;;;;5086902;28;20170;-73
2021/05/27 05:18:00;;;;;;;37.23;18.57;;;13.50;99.90;;;;;;5087386;28;20200;-72
2021/05/27 05:20:28;;;;;;;38.67;18.43;;;13.60;99.90;;;;;;5089276;28;20231;-72
2021/05/27 05:22:55;;;;;;;34.40;18.67;;;13.70;99.90;;;;;;5085766;28;20197;-72
2021/05/27 05:25:21;;;;;;;40.63;19.63;;;13.70;99.90;;;;;;5087602;28;20190;-73
2021/05/27 05:27:47;;;;;;;40.87;18.70;;;13.70;99.90;;;;;;5090439;28;20174;-73
2021/05/27 05:30:14;;;;;;;35.17;18.80;;;13.80;99.90;;;;;;5071886;28;20604;-73
2021/05/27 05:32:42;;;;;;;33.87;19.00;;;13.90;99.90;;;;;;5089816;28;20200;-72
2021/05/27 05:35:09;;;;;;;34.23;19.73;;;14.00;99.90;;;;;;5085346;28;20272;-72
2021/05/27 05:37:36;;;;;;;33.30;19.03;;;14.00;99.90;;;;;;5090491;28;20350;-73
2021/05/27 05:40:03;;;;;;;33.80;19.57;;;13.80;99.90;;;;;;5089068;28;20216;-73
2021/05/27 05:42:28;;;;;;;37.77;20.07;;;13.70;99.90;;;;;;5067570;28;20208;-74
2021/05/27 05:44:58;;;;;;;36.60;19.87;;;13.70;99.90;;;;;;5083639;28;20632;-74
2021/05/27 05:47:23;;;;;;;40.97;19.77;;;13.60;99.90;;;;;;5085073;28;20213;-74
2021/05/27 05:49:49;;;;;;;36.63;20.90;;;13.70;99.90;;;;;;5088067;28;20570;-73
2021/05/27 05:52:15;;;;;;;41.03;21.23;;;13.70;99.90;;;;;;5083760;28;20655;-73
2021/05/27 05:54:40;;;;;;;35.70;19.93;;;13.60;99.90;;;;;;5069630;28;20284;-73
2021/05/27 05:57:06;;;;;;;34.27;19.87;;;13.90;99.90;;;;;;5079080;28;20590;-73
2021/05/27 05:59:32;;;;;;;33.63;19.57;;;14.20;99.90;;;;;;5085300;28;20219;-73
2021/05/27 06:01:58;;;;;;;33.10;19.50;;;14.30;99.90;;;;;;5071164;28;20255;-73
2021/05/27 06:04:25;;;;;;;36.20;19.87;;;14.20;99.90;;;;;;5068732;28;20513;-73
2021/05/27 06:06:59;;;;;;;35.93;20.00;;;14.50;99.90;;;;;;5086532;28;20266;-73
2021/05/27 06:09:27;;;;;;;35.27;20.07;;;15.00;99.90;;;;;;5080024;28;20186;-73
2021/05/27 06:11:52;;;;;;;32.20;19.67;;;15.20;99.90;;;;;;5087774;28;20557;-74
2021/05/27 06:14:19;;;;;;;37.17;20.70;;;15.60;99.90;;;;;;5087117;28;20190;-74
2021/05/27 06:16:45;;;;;;;39.33;23.67;;;15.60;99.90;;;;;;5090757;28;20175;-73
2021/05/27 06:19:10;;;;;;;29.87;19.00;;;15.40;99.90;;;;;;5086999;28;20202;-74
2021/05/27 06:21:51;;;;;;;36.43;19.47;;;15.50;99.90;;;;;;5064172;28;20190;-74
2021/05/27 06:24:43;;;;;;;34.73;19.80;;;15.80;99.90;;;;;;5070286;28;20226;-72
2021/05/27 06:27:09;;;;;;;30.10;18.67;;;15.90;99.90;;;;;;5085481;28;20184;-73
2021/05/27 06:29:35;;;;;;;30.27;19.50;;;16.20;99.90;;;;;;5088074;28;20175;-73
2021/05/27 06:32:00;;;;;;;29.67;19.10;;;16.10;99.90;;;;;;5083949;28;20184;-73
2021/05/27 06:34:26;;;;;;;38.70;21.43;;;15.20;99.90;;;;;;5088888;28;20183;-73
2021/05/27 06:36:52;;;;;;;34.63;21.90;;;15.00;99.90;;;;;;5089245;28;20598;-73
2021/05/27 06:39:17;;;;;;;40.83;21.93;;;14.90;99.90;;;;;;5084351;28;20637;-73
2021/05/27 06:41:43;;;;;;;32.17;21.90;;;14.70;99.90;;;;;;5086675;28;20874;-72
2021/05/27 06:44:09;;;;;;;33.93;21.47;;;14.70;99.90;;;;;;5062788;28;20238;-73
2021/05/27 06:46:34;;;;;;;32.97;21.33;;;14.30;99.90;;;;;;5067681;28;20292;-73
2021/05/27 06:49:00;;;;;;;34.90;22.27;;;14.00;99.90;;;;;;5067079;28;20184;-73
2021/05/27 06:51:26;;;;;;;34.77;21.63;;;13.90;99.90;;;;;;5085580;28;20231;-73
2021/05/27 06:53:52;;;;;;;33.23;20.30;;;13.90;99.90;;;;;;5086429;28;20185;-74
2021/05/27 06:56:26;;;;;;;34.43;21.93;;;13.80;99.90;;;;;;5086891;28;20182;-74
2021/05/27 06:58:52;;;;;;;33.77;21.57;;;13.90;99.90;;;;;;5088371;28;20603;-74
2021/05/27 07:01:17;;;;;;;34.13;21.00;;;14.40;99.90;;;;;;5085996;28;20186;-73
2021/05/27 07:03:43;;;;;;;29.53;18.73;;;15.30;99.90;;;;;;5085696;28;20224;-73
2021/05/27 07:06:09;;;;;;;24.00;16.13;;;16.70;99.90;;;;;;5086360;28;20178;-73
2021/05/27 07:08:36;;;;;;;27.30;16.87;;;17.00;99.90;;;;;;5080518;28;20229;-74
2021/05/27 07:11:02;;;;;;;24.43;15.80;;;17.20;99.90;;;;;;5086492;28;20182;-73
2021/05/27 07:13:28;;;;;;;25.87;15.67;;;17.30;99.90;;;;;;5084353;28;20184;-73
2021/05/27 07:15:54;;;;;;;25.27;14.40;;;17.50;99.90;;;;;;5068156;28;20189;-74
2021/05/27 07:18:19;;;;;;;23.47;13.63;;;17.90;99.90;;;;;;5085320;28;20654;-74
2021/05/27 07:20:45;;;;;;;21.53;12.93;;;17.50;99.90;;;;;;5084045;28;20247;-74
2021/05/27 07:23:11;;;;;;;22.00;13.90;;;17.40;99.90;;;;;;5069424;28;20213;-74
2021/05/27 07:25:36;;;;;;;21.73;13.53;;;16.80;99.90;;;;;;5080587;28;20192;-73
2021/05/27 07:28:03;;;;;;;24.47;14.20;;;16.90;99.90;;;;;;5085488;28;20260;-74
2021/05/27 07:30:29;;;;;;;25.20;14.50;;;16.60;99.90;;;;;;5084863;28;20214;-73
2021/05/27 07:32:56;;;;;;;26.93;15.97;;;16.40;99.90;;;;;;5086236;28;20226;-73
2021/05/27 07:35:24;;;;;;;30.17;16.13;;;16.10;99.90;;;;;;5069142;28;20587;-74
2021/05/27 07:37:52;;;;;;;24.27;16.30;;;16.10;99.90;;;;;;5080645;28;20238;-73
2021/05/27 07:40:18;;;;;;;27.93;16.83;;;15.90;99.90;;;;;;5083745;28;20207;-73
2021/05/27 07:42:43;;;;;;;24.50;17.43;;;15.40;99.90;;;;;;5065045;28;20643;-73
2021/05/27 07:45:09;;;;;;;25.47;16.90;;;15.50;99.90;;;;;;5064658;28;20190;-73
2021/05/27 07:47:35;;;;;;;27.30;16.93;;;15.40;99.90;;;;;;5084435;28;20302;-74
2021/05/27 07:50:03;;;;;;;24.20;15.77;;;15.60;99.90;;;;;;5088041;28;20183;-73
2021/05/27 07:52:28;;;;;;;21.30;15.30;;;15.80;99.90;;;;;;5087059;28;20188;-73
2021/05/27 07:54:55;;;;;;;23.83;15.13;;;15.80;99.90;;;;;;5069819;28;20603;-73
2021/05/27 07:57:21;;;;;;;24.03;14.63;;;15.50;99.90;;;;;;5086354;28;20198;-72
2021/05/27 07:59:47;;;;;;;21.10;13.60;;;15.30;99.90;;;;;;5087042;28;20216;-73
2021/05/27 08:02:13;;;;;;;24.07;14.57;;;14.90;99.90;;;;;;5088590;28;20519;-73
2021/05/27 08:04:42;;;;;;;23.80;14.57;;;14.80;99.90;;;;;;5088119;28;20596;-73
2021/05/27 08:07:11;;;;;;;23.00;14.80;;;14.60;99.90;;;;;;5085745;28;20188;-73
2021/05/27 08:09:38;;;;;;;25.60;15.57;;;14.40;99.90;;;;;;5088837;28;20193;-73
2021/05/27 08:12:05;;;;;;;24.70;15.70;;;14.60;99.90;;;;;;5086075;28;20180;-73
2021/05/27 08:14:31;;;;;;;29.07;16.90;;;14.70;99.90;;;;;;5089950;28;20265;-73
2021/05/27 08:16:56;;;;;;;22.97;14.20;;;14.60;99.90;;;;;;5091461;28;20621;-73
2021/05/27 08:19:22;;;;;;;23.73;14.53;;;14.60;99.90;;;;;;5088556;28;20209;-73
2021/05/27 08:21:48;;;;;;;21.90;13.53;;;14.60;99.90;;;;;;5091022;28;20183;-73
2021/05/27 08:24:14;;;;;;;22.57;13.47;;;14.50;99.90;;;;;;5083401;28;20182;-73
2021/05/27 08:26:39;;;;;;;21.13;13.13;;;14.50;99.90;;;;;;5089683;28;20550;-74
2021/05/27 08:29:05;;;;;;;21.80;14.07;;;14.80;99.90;;;;;;5091601;28;20190;-72
2021/05/27 08:31:31;;;;;;;21.53;14.30;;;15.10;99.90;;;;;;5086409;28;20175;-72
2021/05/27 08:33:57;;;;;;;24.33;16.63;;;15.20;99.90;;;;;;5092701;28;20274;-72
2021/05/27 08:36:23;;;;;;;23.90;15.57;;;15.00;99.90;;;;;;5088738;28;20281;-73
2021/05/27 08:38:49;;;;;;;25.23;16.20;;;14.90;99.90;;;;;;5088009;28;20183;-73
2021/05/27 08:41:18;;;;;;;26.10;16.07;;;14.90;99.90;;;;;;5089093;28;20189;-73
2021/05/27 08:43:46;;;;;;;27.10;15.73;;;15.70;99.90;;;;;;5085927;28;20192;-73
2021/05/27 08:46:11;;;;;;;20.63;14.37;;;16.70;99.90;;;;;;5066232;28;20222;-73
2021/05/27 08:48:37;;;;;;;20.40;13.57;;;17.50;99.90;;;;;;5088904;28;20212;-73
2021/05/27 08:51:03;;;;;;;21.43;13.90;;;17.80;99.90;;;;;;5064436;28;20621;-73
2021/05/27 08:53:29;;;;;;;20.83;13.30;;;17.40;99.90;;;;;;5090007;28;20221;-73
2021/05/27 08:55:55;;;;;;;20.27;11.80;;;17.20;99.90;;;;;;5087976;28;20220;-73
2021/05/27 08:58:21;;;;;;;20.17;13.40;;;17.30;99.90;;;;;;5070628;28;20221;-73
2021/05/27 09:00:47;;;;;;;20.47;13.57;;;17.60;99.90;;;;;;5089426;28;20646;-73
2021/05/27 09:03:15;;;;;;;20.30;12.90;;;17.50;99.90;;;;;;5088524;28;20273;-73
2021/05/27 09:05:40;;;;;;;23.37;13.87;;;17.80;99.90;;;;;;5088495;28;20596;-73
2021/05/27 09:08:08;;;;;;;20.27;14.37;;;17.80;99.90;;;;;;5082385;28;20274;-73
2021/05/27 09:10:48;;;;;;;21.43;13.43;;;17.70;99.90;;;;;;5087061;28;20212;-73
2021/05/27 09:13:16;;;;;;;19.03;13.53;;;17.40;99.90;;;;;;5071333;28;20283;-72
2021/05/27 09:15:43;;;;;;;20.07;14.20;;;17.00;99.90;;;;;;5066551;28;20212;-73
2021/05/27 09:18:09;;;;;;;20.20;13.50;;;16.40;99.90;;;;;;5086653;28;20327;-72
2021/05/27 09:20:35;;;;;;;21.50;13.77;;;16.40;99.90;;;;;;5081182;28;20282;-73
2021/05/27 09:23:17;;;;;;;20.63;14.57;;;16.10;99.90;;;;;;5086304;28;20190;-72
2021/05/27 09:25:50;;;;;;;20.27;15.50;;;15.60;99.90;;;;;;5081052;28;20236;-72
2021/05/27 09:28:23;;;;;;;22.00;15.70;;;15.60;99.90;;;;;;5070565;28;20187;-73
2021/05/27 09:30:55;;;;;;;20.47;13.97;;;15.70;99.90;;;;;;5073605;28;20185;-73
2021/05/27 09:33:38;;;;;;;20.33;14.03;;;15.80;99.90;;;;;;5086197;28;20184;-73
2021/05/27 09:36:12;;;;;;;19.20;14.27;;;15.90;99.90;;;;;;5072436;28;20197;-73
2021/05/27 09:38:41;;;;;;;18.57;14.57;;;16.00;99.90;;;;;;5080499;28;20204;-73
2021/05/27 09:41:21;;;;;;;21.20;15.43;;;16.10;99.90;;;;;;5083911;28;20193;-73
2021/05/27 09:43:55;;;;;;;22.60;15.57;;;16.40;99.90;;;;;;5081605;28;20647;-73
2021/05/27 09:46:22;;;;;;;21.07;15.20;;;16.50;99.90;;;;;;5087748;28;20247;-73
2021/05/27 09:49:06;;;;;;;21.57;15.53;;;16.60;99.90;;;;;;5067721;28;20543;-74
2021/05/27 09:51:32;;;;;;;19.13;14.03;;;17.30;99.90;;;;;;5088092;28;20588;-73
2021/05/27 09:53:59;;;;;;;21.60;14.20;;;17.60;99.90;;;;;;5088054;28;20186;-74
2021/05/27 09:56:39;;;;;;;19.57;13.10;;;18.00;99.90;;;;;;5063893;28;20186;-74
2021/05/27 09:59:07;;;;;;;19.07;13.60;;;17.50;99.90;;;;;;5086945;28;20212;-74
2021/05/27 10:01:32;;;;;;;18.00;14.23;;;17.00;99.90;;;;;;5061619;28;20674;-73
2021/05/27 10:04:24;;;;;;;22.40;14.90;;;16.60;99.90;;;;;;5068687;28;20263;-74
2021/05/27 10:06:50;;;;;;;22.27;16.03;;;16.30;99.90;;;;;;5061045;28;20288;-74
2021/05/27 10:09:17;;;;;;;20.87;16.20;;;16.10;99.90;;;;;;5077503;28;20341;-73
2021/05/27 10:11:42;;;;;;;21.10;16.33;;;16.00;99.90;;;;;;5086186;28;20740;-73
2021/05/27 10:14:08;;;;;;;23.23;17.03;;;16.00;99.90;;;;;;5068717;28;20192;-73
2021/05/27 10:16:36;;;;;;;20.90;15.57;;;16.30;99.90;;;;;;5080343;28;20275;-73
2021/05/27 10:19:03;;;;;;;21.00;14.83;;;16.50;99.90;;;;;;5085065;28;20188;-73
2021/05/27 10:21:28;;;;;;;22.03;14.80;;;17.10;99.90;;;;;;5081764;28;20188;-73
2021/05/27 10:23:54;;;;;;;18.80;14.20;;;17.70;99.90;;;;;;5088323;28;20259;-73
2021/05/27 10:26:21;;;;;;;18.83;13.33;;;18.20;99.90;;;;;;5081562;28;20227;-73
2021/05/27 10:28:52;;;;;;;18.13;13.73;;;18.40;99.90;;;;;;5086793;28;20215;-73
2021/05/27 10:31:21;;;;;;;16.93;12.93;;;18.60;99.90;;;;;;5082877;28;20182;-72
2021/05/27 10:33:47;;;;;;;15.93;12.60;;;17.70;99.90;;;;;;5070217;28;20529;-73
2021/05/27 10:36:13;;;;;;;18.40;12.80;;;17.20;99.90;;;;;;5084682;28;20173;-72
2021/05/27 10:38:39;;;;;;;16.37;12.30;;;17.20;99.90;;;;;;5087053;28;20553;-73
2021/05/27 10:41:17;;;;;;;17.30;11.57;;;17.80;99.90;;;;;;5072120;28;20214;-73
2021/05/27 10:44:01;;;;;;;18.37;11.00;;;18.20;99.90;;;;;;5063922;28;20190;-73
2021/05/27 10:46:47;;;;;;;15.43;10.20;;;19.10;99.90;;;;;;5089350;28;20238;-73
2021/05/27 10:49:45;;;;;;;15.53;10.50;;;19.40;99.90;;;;;;5091419;28;20274;-73
2021/05/27 10:52:30;;;;;;;12.57;8.60;;;19.80;99.90;;;;;;5077218;28;20190;-73
2021/05/27 10:54:56;;;;;;;11.93;8.07;;;19.00;99.90;;;;;;5087255;28;20184;-73
2021/05/27 10:57:40;;;;;;;12.70;8.07;;;18.30;99.90;;;;;;5086323;28;20194;-73
2021/05/27 11:00:31;;;;;;;13.13;7.87;;;17.80;99.90;;;;;;5081466;28;20250;-73
2021/05/27 11:03:35;;;;;;;12.67;7.50;;;19.00;99.90;;;;;;5077969;28;20563;-73
2021/05/27 11:06:31;;;;;;;11.67;7.00;;;21.20;99.90;;;;;;5072396;28;20180;-73
2021/05/27 11:09:24;;;;;;;9.80;5.70;;;23.00;99.90;;;;;;5087107;28;20218;-73
2021/05/27 11:11:51;;;;;;;10.33;5.43;;;23.40;99.90;;;;;;5086148;28;20661;-73
2021/05/27 11:14:51;;;;;;;10.00;5.03;;;22.50;99.90;;;;;;5085194;28;20180;-73
2021/05/27 11:17:24;;;;;;;9.07;4.77;;;22.70;99.90;;;;;;5084944;28;20615;-73
2021/05/27 11:22:31;;;;;;;8.13;4.00;;;21.50;99.90;;;;;;5085259;28;20189;-73
2021/05/27 11:27:39;;;;;;;9.60;4.43;;;21.40;99.90;;;;;;5068483;28;20226;-73
2021/05/27 11:30:19;;;;;;;7.43;3.97;;;21.00;99.90;;;;;;5071807;28;20187;-73
2021/05/27 11:32:48;;;;;;;8.37;4.60;;;20.70;99.90;;;;;;5086911;28;20202;-73
2021/05/27 11:35:14;;;;;;;9.50;5.00;;;19.80;99.90;;;;;;5069277;28;20241;-74
2021/05/27 11:37:41;;;;;;;12.40;5.70;;;19.30;99.90;;;;;;5084939;28;20589;-73
2021/05/27 11:40:08;;;;;;;10.17;5.60;;;19.10;99.90;;;;;;5068956;28;20195;-73
2021/05/27 11:42:35;;;;;;;10.73;5.80;;;19.30;99.90;;;;;;5086398;28;20215;-73
2021/05/27 11:45:04;;;;;;;11.83;5.47;;;19.40;99.90;;;;;;5091222;28;20265;-73
2021/05/27 11:47:30;;;;;;;11.07;6.20;;;19.70;99.90;;;;;;5090543;28;20179;-73
2021/05/27 11:50:12;;;;;;;12.00;5.70;;;19.40;99.90;;;;;;5079919;28;20196;-73
2021/05/27 11:52:39;;;;;;;10.47;4.93;;;19.60;99.90;;;;;;5089929;28;20244;-73
2021/05/27 11:55:13;;;;;;;7.63;4.10;;;20.90;99.90;;;;;;5088731;28;20761;-73
2021/05/27 11:57:48;;;;;;;10.17;4.87;;;22.00;99.90;;;;;;5083789;28;20175;-73
2021/05/27 12:00:19;;;;;;;9.37;4.50;;;21.90;99.90;;;;;;5081976;28;20294;-73
2021/05/27 12:02:47;;;;;;;9.27;4.97;;;22.00;99.90;;;;;;5090951;28;20240;-73
2021/05/27 12:05:28;;;;;;;7.40;4.23;;;21.50;99.90;;;;;;5074191;28;20184;-74
2021/05/27 12:08:12;;;;;;;8.43;3.83;;;20.50;99.90;;;;;;5089619;28;20273;-74
2021/05/27 12:10:45;;;;;;;10.70;4.57;;;20.10;99.90;;;;;;5083702;28;20197;-74
2021/05/27 12:13:22;;;;;;;9.00;4.60;;;20.40;99.90;;;;;;5090677;28;20199;-74
2021/05/27 12:15:49;;;;;;;8.90;4.37;;;19.90;99.90;;;;;;5087749;28;20171;-74
2021/05/27 12:18:17;;;;;;;9.53;4.33;;;20.10;99.90;;;;;;5088430;28;20315;-73
2021/05/27 12:20:48;;;;;;;9.50;4.30;;;20.10;99.90;;;;;;5073381;28;20672;-74
2021/05/27 12:23:20;;;;;;;7.47;4.37;;;20.50;99.90;;;;;;5086689;28;20262;-74
2021/05/27 12:25:52;;;;;;;9.30;3.87;;;20.80;99.90;;;;;;5054938;28;20661;-74
2021/05/27 12:28:29;;;;;;;12.13;4.67;;;20.60;99.90;;;;;;5083312;28;20262;-74
2021/05/27 12:31:02;;;;;;;12.30;5.70;;;20.40;99.90;;;;;;5072951;28;20326;-74
2021/05/27 12:33:33;;;;;;;13.60;5.07;;;20.00;99.90;;;;;;5091497;28;20187;-74
2021/05/27 12:36:07;;;;;;;13.37;5.97;;;19.60;99.90;;;;;;5088843;28;20183;-74
2021/05/27 12:38:33;;;;;;;10.90;5.77;;;19.20;99.90;;;;;;5089653;28;20230;-74
2021/05/27 12:41:04;;;;;;;11.43;6.00;;;19.10;99.90;;;;;;5087189;28;20207;-74
2021/05/27 12:43:37;;;;;;;11.10;5.30;;;18.90;99.90;;;;;;5089752;28;20236;-74
2021/05/27 12:46:06;;;;;;;10.13;4.80;;;19.20;99.90;;;;;;5069563;28;20263;-74
2021/05/27 12:48:34;;;;;;;10.30;4.80;;;19.30;99.90;;;;;;5089343;28;20258;-74
2021/05/27 12:51:06;;;;;;;12.00;4.73;;;19.60;99.90;;;;;;5087201;28;20182;-74
2021/05/27 12:53:33;;;;;;;16.63;5.87;;;19.70;99.90;;;;;;5086060;28;20203;-73